createdAt,value
2022-12-01T00:07:36.329Z,93.90
2022-12-01T00:08:39.970Z,93.60
2022-12-01T00:09:58.325Z,81.10
2022-12-01T00:18:15.907Z,82.20
2022-12-01T00:19:11.259Z,83.60
2022-12-01T00:22:29.968Z,85.00
2022-12-01T00:23:31.464Z,86.10
2022-12-01T00:24:38.166Z,84.50
2022-12-01T00:25:33.168Z,90.50
2022-12-01T00:26:36.137Z,83.50
2022-12-01T00:27:34.348Z,85.50
2022-12-01T00:28:35.231Z,85.00
2022-12-01T00:29:36.413Z,83.90
2022-12-01T00:30:30.539Z,95.80
2022-12-01T00:31:30.027Z,87.00
2022-12-01T00:32:31.324Z,90.40
2022-12-01T00:33:28.933Z,86.80
2022-12-01T00:34:35.426Z,82.60
2022-12-01T00:35:39.667Z,85.80
2022-12-01T00:36:34.436Z,100.60
2022-12-01T00:37:38.128Z,82.40
2022-12-01T00:38:33.893Z,86.30
2022-12-01T00:39:41.304Z,89.30
2022-12-01T00:40:52.452Z,101.90
2022-12-01T00:41:55.466Z,96.30
2022-12-01T00:43:08.016Z,85.70
2022-12-01T00:43:44.641Z,86.50
2022-12-01T00:44:30.720Z,104.90
2022-12-01T00:45:31.527Z,89.70
2022-12-01T00:46:38.683Z,89.40
2022-12-01T00:47:34.366Z,89.00
2022-12-01T00:50:24.468Z,87.70
2022-12-01T00:51:14.362Z,87.30
2022-12-01T00:52:11.913Z,85.90
2022-12-01T00:53:13.604Z,85.80
2022-12-01T00:54:07.647Z,94.90
2022-12-01T00:55:06.135Z,82.90
2022-12-01T00:56:06.148Z,91.10
2022-12-01T00:57:06.094Z,86.90
2022-12-01T00:58:07.848Z,95.50
2022-12-01T00:59:08.646Z,86.30
2022-12-01T01:00:11.461Z,89.00
2022-12-01T01:01:11.602Z,81.90
2022-12-01T01:02:09.526Z,86.00
2022-12-01T01:03:11.362Z,87.60
2022-12-01T01:04:10.981Z,86.90
2022-12-01T01:05:13.351Z,85.10
2022-12-01T01:06:17.299Z,90.30
2022-12-01T01:07:11.508Z,86.60
2022-12-01T01:08:10.493Z,83.00
2022-12-01T01:09:08.406Z,93.80
2022-12-01T01:10:13.870Z,91.00
2022-12-01T01:11:12.183Z,81.50
2022-12-01T01:12:06.774Z,96.70
2022-12-01T01:13:11.899Z,95.00
2022-12-01T01:14:10.280Z,81.50
2022-12-01T01:15:15.005Z,82.60
2022-12-01T01:16:12.574Z,100.80
2022-12-01T01:17:22.085Z,87.90
2022-12-01T01:18:08.569Z,94.00
2022-12-01T01:19:12.667Z,84.30
2022-12-01T01:23:55.908Z,98.40
2022-12-01T01:24:52.858Z,100.90
2022-12-01T01:25:56.282Z,97.10
2022-12-01T01:27:08.954Z,89.70
2022-12-01T01:28:09.195Z,79.10
2022-12-01T01:29:06.508Z,82.80
2022-12-01T01:30:07.626Z,97.70
2022-12-01T01:30:48.695Z,101.30
2022-12-01T01:31:52.751Z,82.70
2022-12-01T01:32:48.611Z,83.60
2022-12-01T02:02:45.408Z,95.60
2022-12-01T02:03:38.057Z,95.00
2022-12-01T02:04:36.267Z,91.70
2022-12-01T02:05:39.881Z,92.60
2022-12-01T02:06:40.279Z,97.90
2022-12-01T02:07:45.028Z,114.60
2022-12-01T02:14:44.524Z,90.40
2022-12-01T02:15:40.669Z,91.10
2022-12-01T02:16:40.059Z,89.80
2022-12-01T02:23:12.594Z,93.40
2022-12-01T02:23:49.060Z,94.70
2022-12-01T02:24:54.392Z,95.30
2022-12-01T02:25:55.212Z,95.90
2022-12-01T02:26:53.476Z,89.80
2022-12-01T02:27:53.511Z,95.30
2022-12-01T02:28:56.425Z,96.80
2022-12-01T02:29:50.630Z,98.40
2022-12-01T02:31:14.995Z,97.00
2022-12-01T02:31:58.287Z,110.10
2022-12-01T02:32:53.917Z,97.00
2022-12-01T02:33:53.273Z,93.10
2022-12-01T02:34:51.683Z,92.30
2022-12-01T02:35:55.455Z,92.40
2022-12-01T02:37:08.136Z,96.60
2022-12-01T02:37:51.569Z,94.50
2022-12-01T02:38:50.375Z,90.60
2022-12-01T02:39:48.522Z,93.00
2022-12-01T02:40:49.816Z,108.50
2022-12-01T02:41:52.801Z,91.70
2022-12-01T02:42:52.078Z,91.80
2022-12-01T02:43:51.853Z,94.00
2022-12-01T02:44:51.280Z,92.10
2022-12-01T02:45:48.740Z,101.70
2022-12-01T02:48:45.058Z,97.50
2022-12-01T02:49:52.767Z,94.60
2022-12-01T02:50:55.109Z,96.40
2022-12-01T03:30:51.587Z,112.60
2022-12-01T03:31:25.074Z,108.70
2022-12-01T03:32:20.462Z,105.20
2022-12-01T03:42:55.179Z,115.40
2022-12-01T03:43:48.217Z,116.60
2022-12-01T03:44:47.270Z,110.00
2022-12-01T03:45:47.807Z,113.90
2022-12-01T03:46:44.744Z,106.30
2022-12-01T04:17:34.070Z,155.90
2022-12-01T04:19:02.139Z,146.90
2022-12-01T04:21:39.338Z,128.50
2022-12-01T04:28:19.620Z,145.00
2022-12-01T04:29:03.579Z,140.60
2022-12-01T04:30:01.020Z,134.30
2022-12-01T04:30:56.195Z,149.40
2022-12-01T04:42:22.719Z,138.60
2022-12-01T04:42:53.000Z,139.00
2022-12-01T04:43:58.854Z,124.00
2022-12-01T04:44:47.688Z,130.50
2022-12-01T04:45:52.747Z,130.30
2022-12-01T04:46:44.080Z,143.90
2022-12-01T04:47:55.296Z,150.80
2022-12-01T04:48:45.978Z,137.60
2022-12-01T04:49:52.250Z,142.20
2022-12-01T04:50:47.434Z,155.40
2022-12-01T04:51:50.799Z,151.20
2022-12-01T04:52:53.380Z,124.90
2022-12-01T04:53:52.554Z,128.90
2022-12-01T04:54:51.565Z,146.00
2022-12-01T04:56:06.014Z,158.50
2022-12-01T04:56:48.271Z,138.50
2022-12-01T04:58:09.255Z,130.90
2022-12-01T04:58:46.930Z,146.20
2022-12-01T04:59:46.176Z,134.00
2022-12-01T05:00:44.663Z,117.10
2022-12-01T05:01:44.897Z,165.00
2022-12-01T05:02:49.571Z,128.90
2022-12-01T05:03:46.422Z,127.30
2022-12-01T05:04:52.718Z,122.80
2022-12-01T05:05:46.301Z,141.20
2022-12-01T05:06:53.379Z,115.40
2022-12-01T05:08:10.113Z,136.30
2022-12-01T05:09:13.162Z,140.40
2022-12-01T05:10:10.561Z,144.20
2022-12-01T05:10:58.186Z,151.80
2022-12-01T05:11:55.072Z,138.90
2022-12-01T05:41:25.206Z,168.40
2022-12-01T05:42:13.268Z,171.50
2022-12-01T05:43:11.550Z,162.50
2022-12-01T05:44:13.058Z,184.60
2022-12-01T05:45:22.042Z,210.30
2022-12-01T05:46:17.508Z,177.00
2022-12-01T05:47:17.110Z,168.60
2022-12-01T05:48:22.148Z,203.60
2022-12-01T05:49:32.044Z,182.90
2022-12-01T05:50:42.101Z,183.30
2022-12-01T05:51:16.907Z,163.50
2022-12-01T05:52:17.796Z,185.40
2022-12-01T05:53:18.104Z,170.30
2022-12-01T06:00:42.258Z,192.50
2022-12-01T06:01:12.854Z,189.30
2022-12-01T06:01:59.516Z,189.10
2022-12-01T06:02:56.336Z,184.50
2022-12-01T06:06:07.594Z,189.70
2022-12-01T06:06:57.737Z,181.90
2022-12-01T06:08:00.867Z,177.50
2022-12-01T06:09:21.211Z,176.80
2022-12-01T06:09:55.555Z,180.30
2022-12-01T06:11:04.789Z,181.90
2022-12-01T06:12:03.900Z,178.00
2022-12-01T06:13:27.670Z,209.00
2022-12-01T06:14:14.498Z,181.00
2022-12-01T06:20:46.901Z,184.50
2022-12-01T06:21:37.879Z,185.90
2022-12-01T06:22:24.153Z,206.40
2022-12-01T06:23:48.679Z,216.60
2022-12-01T06:24:32.735Z,203.00
2022-12-01T06:25:44.674Z,210.10
2022-12-01T06:26:26.299Z,216.00
2022-12-01T06:27:22.589Z,224.90
2022-12-01T06:46:48.808Z,195.40
2022-12-01T06:47:57.032Z,194.90
2022-12-01T06:51:56.085Z,208.20
2022-12-01T06:52:55.868Z,199.80
2022-12-01T06:53:58.685Z,195.20
2022-12-01T06:54:56.792Z,212.20
2022-12-01T06:55:55.873Z,214.10
2022-12-01T06:56:55.993Z,189.60
2022-12-01T06:57:56.259Z,213.30
2022-12-01T06:58:55.812Z,207.20
2022-12-01T06:59:57.742Z,201.30
2022-12-01T07:00:56.608Z,230.80
2022-12-01T07:01:59.451Z,213.60
2022-12-01T07:02:55.688Z,185.80
2022-12-01T07:03:55.840Z,195.90
2022-12-01T07:04:55.756Z,216.60
2022-12-01T07:05:55.743Z,207.50
2022-12-01T07:06:55.776Z,193.10
2022-12-01T07:07:59.471Z,216.00
2022-12-01T07:08:55.684Z,214.60
2022-12-01T07:09:55.767Z,230.10
2022-12-01T07:10:55.542Z,209.10
2022-12-01T07:11:55.655Z,231.40
2022-12-01T07:12:56.349Z,213.80
2022-12-01T07:13:55.696Z,224.90
2022-12-01T07:14:55.720Z,229.90
2022-12-01T07:15:55.614Z,244.30
2022-12-01T07:16:56.179Z,245.00
2022-12-01T07:17:56.353Z,222.10
2022-12-01T07:18:55.565Z,230.60
2022-12-01T07:19:55.713Z,247.90
2022-12-01T07:20:55.450Z,237.60
2022-12-01T07:21:56.665Z,258.30
2022-12-01T07:22:55.552Z,237.50
2022-12-01T07:23:55.349Z,270.10
2022-12-01T07:25:32.980Z,254.00
2022-12-01T07:26:10.451Z,244.40
2022-12-01T07:30:59.193Z,237.10
2022-12-01T07:32:07.335Z,238.20
2022-12-01T07:35:36.053Z,235.70
2022-12-01T07:36:18.360Z,232.60
2022-12-01T07:37:11.077Z,228.00
2022-12-01T07:38:02.393Z,247.50
2022-12-01T07:39:18.615Z,252.40
2022-12-01T07:40:18.551Z,248.30
2022-12-01T07:41:22.406Z,264.10
2022-12-01T07:42:13.559Z,271.80
2022-12-01T07:43:16.630Z,272.90
2022-12-01T07:44:09.223Z,259.20
2022-12-01T07:45:14.567Z,280.60
2022-12-01T07:46:09.003Z,258.90
2022-12-01T07:47:04.740Z,249.60
2022-12-01T07:48:29.021Z,274.20
2022-12-01T07:49:14.961Z,251.10
2022-12-01T07:50:20.981Z,260.10
2022-12-01T07:51:23.652Z,251.60
2022-12-01T07:55:43.235Z,252.40
2022-12-01T07:56:38.008Z,257.20
2022-12-01T07:57:51.092Z,253.10
2022-12-01T08:06:13.235Z,285.50
2022-12-01T08:07:01.341Z,282.70
2022-12-01T08:07:42.056Z,264.10
2022-12-01T08:08:48.296Z,235.20
2022-12-01T08:09:44.440Z,272.70
2022-12-01T08:10:35.320Z,272.10
2022-12-01T08:11:32.106Z,273.20
2022-12-01T08:12:33.824Z,284.60
2022-12-01T08:15:57.920Z,276.30
2022-12-01T08:16:49.309Z,284.20
2022-12-01T08:17:48.152Z,259.20
2022-12-01T08:18:48.091Z,289.30
2022-12-01T08:19:48.354Z,265.90
2022-12-01T08:20:52.289Z,273.20
2022-12-01T08:21:48.450Z,267.60
2022-12-01T08:22:48.235Z,293.60
2022-12-01T08:23:48.436Z,287.10
2022-12-01T08:24:48.656Z,269.90
2022-12-01T08:25:48.319Z,289.00
2022-12-01T08:26:47.944Z,293.10
2022-12-01T08:27:48.775Z,295.80
2022-12-01T08:28:47.924Z,293.50
2022-12-01T08:29:48.365Z,278.00
2022-12-01T08:30:54.030Z,279.80
2022-12-01T08:33:13.126Z,274.60
2022-12-01T08:34:07.645Z,274.40
2022-12-01T08:35:19.911Z,276.10
2022-12-01T08:36:44.167Z,292.10
2022-12-01T09:07:36.012Z,304.70
2022-12-01T09:08:34.183Z,319.00
2022-12-01T09:12:07.814Z,285.80
2022-12-01T09:13:06.983Z,289.90
2022-12-01T09:14:12.644Z,297.20
2022-12-01T09:25:05.139Z,287.80
2022-12-01T09:26:24.431Z,281.50
2022-12-01T09:27:09.505Z,293.70
2022-12-01T09:28:12.219Z,295.70
2022-12-01T09:29:14.796Z,299.60
2022-12-01T09:30:10.100Z,296.80
2022-12-01T09:31:04.590Z,281.10
2022-12-01T09:32:04.729Z,278.70
2022-12-01T09:33:02.206Z,279.00
2022-12-01T09:34:03.938Z,275.70
2022-12-01T09:35:04.619Z,261.80
2022-12-01T09:36:41.193Z,237.80
2022-12-01T09:37:01.672Z,251.40
2022-12-01T09:38:03.867Z,251.20
2022-12-01T09:39:06.868Z,237.30
2022-12-01T09:40:04.853Z,216.30
2022-12-01T09:40:56.659Z,232.60
2022-12-01T09:42:06.121Z,221.10
2022-12-01T09:43:06.958Z,223.00
2022-12-01T09:44:09.174Z,215.80
2022-12-01T09:45:09.386Z,213.90
2022-12-01T09:46:00.247Z,197.30
2022-12-01T09:47:11.017Z,191.90
2022-12-01T09:48:16.090Z,198.60
2022-12-01T09:49:01.887Z,208.40
2022-12-01T09:49:59.051Z,163.70
2022-12-01T09:51:07.192Z,179.50
2022-12-01T09:51:59.213Z,179.90
2022-12-01T09:52:58.002Z,169.90
2022-12-01T09:53:58.183Z,160.20
2022-12-01T09:54:57.546Z,153.50
2022-12-01T09:56:02.528Z,150.00
2022-12-01T09:56:57.706Z,131.50
2022-12-01T09:57:59.688Z,128.30
2022-12-01T09:58:57.392Z,112.90
2022-12-01T09:59:58.068Z,108.60
2022-12-01T10:00:59.303Z,99.10
2022-12-01T10:02:03.958Z,91.00
2022-12-01T10:02:59.556Z,94.60
2022-12-01T10:03:59.663Z,93.60
2022-12-01T10:05:00.016Z,84.80
2022-12-01T10:06:27.632Z,83.80
2022-12-01T10:07:04.405Z,61.50
2022-12-01T10:08:03.208Z,69.40
2022-12-01T10:09:00.013Z,68.40
2022-12-01T10:10:06.877Z,68.20
2022-12-01T10:11:12.107Z,65.40
2022-12-01T10:12:03.336Z,64.30
2022-12-01T10:13:00.734Z,61.30
2022-12-01T10:14:00.561Z,65.80
2022-12-01T10:25:40.879Z,49.30
2022-12-01T10:40:02.385Z,54.10
2022-12-01T10:40:46.322Z,52.70
2022-12-01T10:41:52.091Z,50.90
2022-12-01T10:42:40.931Z,48.40
2022-12-01T10:43:38.973Z,52.10
2022-12-01T10:44:38.869Z,53.60
2022-12-01T10:45:38.938Z,48.80
2022-12-01T10:46:38.905Z,48.10
2022-12-01T10:47:38.782Z,50.70
2022-12-01T10:48:38.927Z,46.50
2022-12-01T10:49:38.875Z,47.90
2022-12-01T10:50:38.928Z,48.80
2022-12-01T10:51:38.738Z,46.70
2022-12-01T10:52:38.746Z,48.40
2022-12-01T10:53:38.832Z,46.60
2022-12-01T10:54:38.641Z,45.40
2022-12-01T10:55:42.064Z,42.20
2022-12-01T10:56:40.299Z,44.70
2022-12-01T10:57:40.601Z,46.60
2022-12-01T10:58:38.892Z,43.40
2022-12-01T10:59:48.571Z,45.20
2022-12-01T11:00:59.125Z,48.50
2022-12-01T11:01:52.050Z,48.00
2022-12-01T11:02:48.890Z,44.80
2022-12-01T11:03:48.814Z,45.30
2022-12-01T11:05:13.224Z,48.20
2022-12-01T11:05:45.973Z,51.90
2022-12-01T11:06:48.879Z,50.00
2022-12-01T11:08:12.844Z,46.70
2022-12-01T11:09:09.007Z,52.20
2022-12-01T11:09:58.305Z,48.90
2022-12-01T11:11:02.152Z,47.90
2022-12-01T11:11:48.726Z,46.40
2022-12-01T11:13:03.076Z,46.90
2022-12-01T11:13:49.290Z,52.30
2022-12-01T11:14:54.234Z,50.80
2022-12-01T11:15:47.403Z,52.10
2022-12-01T11:16:52.252Z,51.50
2022-12-01T11:17:50.657Z,47.90
2022-12-01T11:18:47.427Z,41.50
2022-12-01T11:20:16.262Z,46.50
2022-12-01T11:20:47.956Z,40.70
2022-12-01T11:21:53.786Z,49.40
2022-12-01T11:22:46.156Z,46.80
2022-12-01T11:23:40.883Z,44.70
2022-12-01T11:25:03.948Z,47.80
2022-12-01T11:25:47.825Z,44.60
2022-12-01T11:26:50.592Z,43.60
2022-12-01T11:27:53.777Z,49.50
2022-12-01T11:28:58.318Z,46.40
2022-12-01T11:29:53.012Z,44.90
2022-12-01T11:30:46.071Z,44.40
2022-12-01T11:31:54.168Z,43.30
2022-12-01T11:32:58.560Z,41.70
2022-12-01T11:33:52.569Z,39.20
2022-12-01T11:34:54.796Z,38.20
2022-12-01T11:35:46.880Z,43.70
2022-12-01T11:36:51.067Z,41.70
2022-12-01T11:38:27.667Z,42.90
2022-12-01T11:38:57.058Z,39.20
2022-12-01T13:00:28.262Z,81.70
2022-12-01T13:01:28.269Z,78.60
2022-12-01T13:02:27.521Z,83.40
2022-12-01T13:03:24.536Z,87.40
2022-12-01T13:04:27.022Z,89.10
2022-12-01T13:05:28.491Z,83.40
2022-12-01T13:06:25.997Z,86.60
2022-12-01T13:07:33.681Z,90.30
2022-12-01T13:08:31.570Z,91.00
2022-12-01T13:09:28.736Z,91.50
2022-12-01T13:10:26.225Z,97.60
2022-12-01T13:12:02.180Z,92.80
2022-12-01T13:12:25.783Z,97.60
2022-12-01T13:13:21.232Z,101.70
2022-12-01T13:14:22.200Z,94.40
2022-12-01T13:15:28.865Z,99.20
2022-12-01T13:16:27.966Z,95.00
2022-12-01T13:17:27.497Z,103.90
2022-12-01T13:18:33.389Z,107.40
2022-12-01T13:19:28.188Z,107.30
2022-12-01T13:20:22.519Z,95.60
2022-12-01T13:21:21.078Z,106.80
2022-12-01T13:22:22.965Z,100.10
2022-12-01T13:23:28.972Z,101.30
2022-12-01T13:24:33.613Z,110.60
2022-12-01T13:25:47.262Z,112.10
2022-12-01T13:26:52.605Z,107.40
2022-12-01T13:27:23.639Z,100.50
2022-12-01T13:34:58.803Z,118.90
2022-12-01T13:36:21.355Z,118.60
2022-12-01T13:36:57.731Z,116.90
2022-12-01T14:30:39.488Z,115.50
2022-12-01T14:30:53.356Z,116.40
2022-12-01T14:32:15.516Z,112.50
2022-12-01T14:33:03.011Z,116.80
2022-12-01T14:33:52.087Z,119.00
2022-12-01T14:34:51.899Z,109.00
2022-12-01T14:35:59.336Z,105.00
2022-12-01T14:47:42.153Z,95.90
2022-12-01T14:48:11.495Z,102.00
2022-12-01T14:49:19.552Z,89.00
2022-12-01T14:50:06.956Z,101.10
2022-12-01T14:51:06.251Z,96.30
2022-12-01T14:52:13.797Z,114.50
2022-12-01T14:53:34.258Z,117.40
2022-12-01T14:54:32.965Z,113.10
2022-12-01T14:55:11.431Z,119.80
2022-12-01T14:56:17.782Z,98.30
2022-12-01T15:23:59.724Z,117.30
2022-12-01T15:25:13.220Z,121.00
2022-12-01T15:25:57.525Z,122.40
2022-12-01T15:27:06.128Z,109.10
2022-12-01T15:27:55.839Z,119.60
2022-12-01T15:29:09.302Z,135.70
2022-12-01T15:29:55.002Z,122.60
2022-12-01T15:31:05.836Z,139.80
2022-12-01T15:32:08.476Z,151.00
2022-12-01T15:32:57.668Z,134.50
2022-12-01T15:34:33.472Z,147.70
2022-12-01T15:35:08.883Z,130.50
2022-12-01T15:45:55.912Z,130.20
2022-12-01T15:46:40.691Z,129.10
2022-12-01T15:47:22.966Z,142.30
2022-12-01T15:48:23.643Z,126.90
2022-12-01T15:49:27.784Z,122.40
2022-12-01T15:50:27.002Z,130.90
2022-12-01T15:51:21.624Z,137.00
2022-12-01T15:52:57.220Z,143.50
2022-12-01T15:53:28.538Z,132.90
2022-12-01T15:54:32.796Z,135.20
2022-12-01T15:55:24.483Z,147.00
2022-12-01T15:56:27.642Z,121.00
2022-12-01T15:57:26.728Z,125.20
2022-12-01T15:58:22.290Z,135.10
2022-12-01T15:59:26.927Z,122.60
2022-12-01T16:00:22.656Z,114.50
2022-12-01T16:01:35.718Z,106.60
2022-12-01T16:02:24.257Z,109.10
2022-12-01T16:03:26.828Z,124.00
2022-12-01T16:04:30.710Z,114.30
2022-12-01T16:05:24.830Z,124.70
2022-12-01T16:06:44.981Z,122.10
2022-12-01T16:07:28.455Z,128.90
2022-12-01T16:08:23.514Z,129.60
2022-12-01T16:09:29.998Z,125.60
2022-12-01T16:27:34.939Z,133.70
2022-12-01T16:28:35.790Z,133.10
2022-12-01T16:29:36.038Z,126.30
2022-12-01T16:30:42.429Z,120.90
2022-12-01T16:31:58.565Z,121.20
2022-12-01T16:32:45.452Z,123.90
2022-12-01T16:33:34.741Z,131.60
2022-12-01T16:34:56.801Z,128.00
2022-12-01T16:35:39.331Z,118.10
2022-12-01T16:36:37.283Z,126.10
2022-12-01T16:37:36.894Z,117.10
2022-12-01T16:38:31.172Z,108.20
2022-12-01T16:39:38.143Z,120.10
2022-12-01T16:40:38.317Z,119.70
2022-12-01T16:41:38.408Z,120.80
2022-12-01T16:42:30.647Z,128.60
2022-12-01T16:43:46.810Z,120.60
2022-12-01T16:44:41.309Z,126.10
2022-12-01T16:45:36.350Z,121.10
2022-12-01T16:46:50.655Z,132.40
2022-12-01T16:47:31.100Z,127.50
2022-12-01T16:48:36.782Z,119.90
2022-12-01T16:49:47.791Z,126.60
2022-12-01T16:50:32.972Z,117.20
2022-12-01T16:51:54.849Z,124.30
2022-12-01T16:52:46.098Z,112.50
2022-12-01T16:53:30.521Z,126.20
2022-12-01T16:54:29.333Z,126.10
2022-12-01T16:55:33.656Z,118.10
2022-12-01T16:56:39.448Z,127.30
2022-12-01T16:57:37.407Z,130.30
2022-12-01T16:58:39.578Z,128.40
2022-12-01T16:59:34.226Z,134.80
2022-12-01T17:00:40.979Z,123.40
2022-12-01T17:01:40.937Z,124.20
2022-12-01T17:02:46.379Z,129.90
2022-12-01T17:03:34.813Z,135.60
2022-12-01T17:04:51.758Z,141.20
2022-12-01T17:05:42.260Z,136.20
2022-12-01T17:06:38.135Z,132.70
2022-12-01T17:07:40.204Z,133.50
2022-12-01T17:08:38.313Z,131.60
2022-12-01T17:09:35.034Z,134.70
2022-12-01T17:10:41.216Z,145.80
2022-12-01T17:11:41.606Z,140.00
2022-12-01T17:13:03.942Z,136.90
2022-12-01T17:13:35.310Z,140.90
2022-12-01T17:14:35.301Z,142.50
2022-12-01T17:15:35.759Z,148.20
2022-12-01T17:16:35.013Z,148.40
2022-12-01T17:17:36.196Z,139.40
2022-12-01T17:18:45.898Z,144.20
2022-12-01T17:19:43.376Z,136.10
2022-12-01T17:20:45.531Z,141.50
2022-12-01T17:21:44.731Z,135.60
2022-12-01T17:22:57.615Z,142.90
2022-12-01T17:23:31.004Z,136.10
2022-12-01T17:24:57.090Z,154.60
2022-12-01T17:25:36.359Z,135.10
2022-12-01T17:26:45.058Z,139.90
2022-12-01T17:27:37.927Z,127.30
2022-12-01T17:28:46.214Z,136.90
2022-12-01T17:29:41.656Z,127.90
2022-12-01T17:30:55.168Z,107.90
2022-12-01T17:31:42.586Z,119.80
2022-12-01T17:32:31.492Z,116.40
2022-12-01T17:35:31.345Z,102.40
2022-12-01T17:36:26.845Z,100.60
2022-12-01T17:37:26.844Z,103.30
2022-12-01T17:38:26.654Z,99.50
2022-12-01T17:40:00.644Z,102.80
2022-12-01T17:41:15.294Z,105.80
2022-12-01T17:57:33.051Z,77.50
2022-12-01T17:58:34.239Z,77.50
2022-12-01T17:59:31.539Z,77.40
2022-12-01T18:00:31.481Z,75.70
2022-12-01T18:01:41.332Z,72.50
2022-12-01T18:02:29.919Z,73.80
2022-12-01T18:03:30.388Z,76.20
2022-12-01T18:06:35.486Z,74.70
2022-12-01T18:07:14.238Z,72.90
2022-12-01T18:08:28.969Z,84.50
2022-12-01T18:11:21.220Z,87.50
2022-12-01T18:12:01.752Z,85.60
2022-12-01T18:13:11.710Z,80.40
2022-12-01T18:14:09.369Z,76.00
2022-12-01T18:15:12.792Z,76.20
2022-12-01T18:16:34.191Z,76.40
2022-12-01T18:17:04.495Z,77.70
2022-12-01T18:18:03.946Z,76.40
2022-12-01T18:19:01.946Z,74.00
2022-12-01T18:20:09.932Z,85.00
2022-12-01T18:21:24.563Z,79.70
2022-12-01T18:21:59.628Z,90.30
2022-12-01T18:23:20.735Z,81.00
2022-12-01T18:24:03.743Z,81.90
2022-12-01T18:25:20.119Z,80.70
2022-12-01T18:26:12.263Z,81.40
2022-12-01T18:27:04.364Z,78.50
2022-12-01T18:28:01.387Z,78.40
2022-12-01T18:29:29.456Z,79.70
2022-12-01T18:30:08.059Z,77.80
2022-12-01T18:31:01.605Z,75.50
2022-12-01T18:32:07.003Z,78.00
2022-12-01T18:33:07.181Z,75.10
2022-12-01T18:34:09.172Z,73.70
2022-12-01T18:35:00.659Z,77.80
2022-12-01T18:36:07.109Z,77.50
2022-12-01T18:37:07.047Z,76.80
2022-12-01T18:38:12.853Z,81.10
2022-12-01T18:39:02.866Z,83.00
2022-12-01T18:40:03.988Z,86.30
2022-12-01T18:41:09.012Z,80.40
2022-12-01T18:41:58.504Z,86.20
2022-12-01T18:43:03.010Z,86.00
2022-12-01T18:44:11.050Z,87.40
2022-12-01T18:45:00.787Z,85.80
2022-12-01T18:46:04.211Z,79.50
2022-12-01T18:47:01.355Z,88.90
2022-12-01T18:48:09.238Z,87.30
2022-12-01T18:49:04.552Z,87.90
2022-12-01T18:50:00.909Z,84.60
2022-12-01T18:51:01.356Z,93.00
2022-12-01T18:51:58.275Z,87.90
2022-12-01T18:53:06.426Z,84.80
2022-12-01T18:54:00.507Z,86.60
2022-12-01T18:55:07.025Z,74.70
2022-12-01T18:56:12.185Z,79.40
2022-12-01T18:57:11.241Z,77.60
2022-12-01T18:58:00.630Z,77.80
2022-12-01T18:59:07.031Z,85.50
2022-12-01T19:00:07.069Z,72.50
2022-12-01T19:01:03.183Z,78.10
2022-12-01T19:02:11.211Z,75.90
2022-12-01T19:03:06.007Z,76.10
2022-12-01T19:04:06.664Z,77.70
2022-12-01T19:05:05.221Z,73.70
2022-12-01T19:06:01.048Z,84.60
2022-12-01T19:07:29.916Z,85.70
2022-12-01T19:08:01.447Z,81.20
2022-12-01T19:09:06.254Z,88.00
2022-12-01T19:10:00.436Z,86.00
2022-12-01T19:11:01.103Z,82.00
2022-12-01T19:19:27.702Z,76.30
2022-12-01T19:20:24.427Z,77.20
2022-12-01T19:20:54.887Z,72.80
2022-12-01T19:41:15.942Z,81.50
2022-12-01T19:41:45.345Z,84.60
2022-12-01T19:42:45.364Z,84.10
2022-12-01T19:43:45.241Z,87.50
2022-12-01T19:44:45.375Z,78.70
2022-12-01T19:45:45.411Z,80.20
2022-12-01T19:46:46.525Z,84.00
2022-12-01T19:47:45.513Z,86.80
2022-12-01T19:48:45.390Z,91.00
2022-12-01T19:49:45.599Z,86.20
2022-12-01T19:50:45.220Z,84.70
2022-12-01T19:51:45.394Z,84.20
2022-12-01T19:52:45.306Z,86.60
2022-12-01T19:53:45.424Z,82.30
2022-12-01T19:54:45.308Z,81.10
2022-12-01T19:55:45.871Z,84.40
2022-12-01T19:56:45.164Z,80.30
2022-12-01T19:57:45.576Z,75.90
2022-12-01T19:58:45.276Z,74.50
2022-12-01T19:59:45.376Z,84.30
2022-12-01T20:00:45.433Z,86.60
2022-12-01T20:01:45.276Z,76.00
2022-12-01T20:02:45.338Z,74.30
2022-12-01T20:03:45.093Z,76.60
2022-12-01T20:04:45.402Z,86.50
2022-12-01T20:05:45.294Z,81.60
2022-12-01T20:06:45.134Z,85.10
2022-12-01T20:07:45.479Z,78.70
2022-12-01T20:08:45.543Z,82.80
2022-12-01T20:09:49.736Z,73.40
2022-12-01T20:10:46.151Z,73.40
2022-12-01T20:11:47.527Z,80.70
2022-12-01T20:12:45.436Z,85.70
2022-12-01T20:13:45.988Z,73.90
2022-12-01T20:14:45.178Z,72.70
2022-12-01T20:15:45.510Z,75.80
2022-12-01T20:16:45.002Z,69.70
2022-12-01T20:17:45.206Z,82.80
2022-12-01T20:18:45.077Z,85.20
2022-12-01T20:19:44.989Z,80.30
2022-12-01T20:20:45.221Z,81.20
2022-12-01T20:21:46.048Z,73.60
2022-12-01T20:22:45.414Z,74.60
2022-12-01T20:23:45.756Z,68.60
2022-12-01T20:24:44.950Z,73.40
2022-12-01T20:25:45.401Z,76.40
2022-12-01T20:26:44.862Z,73.50
2022-12-01T20:27:44.914Z,67.90
2022-12-01T20:28:45.078Z,71.40
2022-12-01T20:29:45.290Z,66.30
2022-12-01T20:30:44.799Z,72.50
2022-12-01T20:31:44.727Z,71.50
2022-12-01T20:32:44.817Z,71.70
2022-12-01T20:33:45.113Z,74.50
2022-12-01T20:34:44.710Z,77.40
2022-12-01T20:35:44.834Z,69.80
2022-12-01T20:36:44.834Z,73.20
2022-12-01T20:37:44.703Z,73.20
2022-12-01T20:38:45.050Z,76.40
2022-12-01T20:39:44.637Z,74.40
2022-12-01T20:40:44.658Z,73.60
2022-12-01T20:41:44.630Z,72.70
2022-12-01T20:42:44.776Z,69.00
2022-12-01T20:43:44.983Z,71.10
2022-12-01T20:44:44.569Z,71.50
2022-12-01T20:45:44.822Z,69.10
2022-12-01T20:46:44.887Z,70.40
2022-12-01T20:47:45.615Z,72.10
2022-12-01T20:48:44.476Z,70.60
2022-12-01T20:49:44.403Z,69.10
2022-12-01T20:50:44.509Z,78.50
2022-12-01T20:51:44.419Z,79.00
2022-12-01T20:52:44.505Z,71.20
2022-12-01T20:53:59.471Z,62.00
2022-12-01T20:54:45.738Z,64.60
2022-12-01T20:55:44.342Z,69.20
2022-12-01T20:56:44.531Z,59.00
2022-12-01T20:57:45.281Z,65.40
2022-12-01T20:58:44.474Z,65.90
2022-12-01T20:59:44.453Z,64.70
2022-12-01T21:00:44.460Z,61.10
2022-12-01T21:01:44.497Z,65.70
2022-12-01T21:02:44.448Z,61.10
2022-12-01T21:03:44.291Z,62.70
2022-12-01T21:04:44.411Z,66.70
2022-12-01T21:05:44.386Z,61.20
2022-12-01T21:06:45.233Z,61.70
2022-12-01T21:07:44.293Z,68.30
2022-12-01T21:08:44.521Z,64.00
2022-12-01T21:09:44.350Z,69.90
2022-12-01T21:10:44.236Z,64.40
2022-12-01T21:11:44.251Z,63.30
2022-12-01T21:12:44.370Z,70.40
2022-12-01T21:13:44.272Z,64.40
2022-12-01T21:14:44.368Z,64.80
2022-12-01T21:15:44.682Z,69.90
2022-12-01T21:16:44.146Z,69.50
2022-12-01T21:17:44.205Z,63.30
2022-12-01T21:18:44.313Z,71.10
2022-12-01T21:19:44.165Z,64.60
2022-12-01T21:20:44.209Z,68.90
2022-12-01T21:21:44.417Z,70.00
2022-12-01T21:22:45.088Z,74.90
2022-12-01T21:23:44.143Z,80.60
2022-12-01T21:24:44.208Z,81.90
2022-12-01T21:25:44.154Z,87.10
2022-12-01T21:26:43.966Z,85.90
2022-12-01T21:27:44.045Z,96.40
2022-12-01T21:28:43.985Z,97.50
2022-12-01T21:29:44.064Z,107.00
2022-12-01T21:30:44.054Z,115.50
2022-12-01T21:31:44.702Z,109.90
2022-12-01T21:32:44.501Z,104.30
2022-12-01T21:33:43.964Z,105.50
2022-12-01T21:34:44.370Z,114.70
2022-12-01T21:35:43.968Z,107.10
2022-12-01T21:36:43.909Z,106.80
2022-12-01T21:37:43.901Z,101.80
2022-12-01T21:38:43.798Z,115.00
2022-12-01T21:39:43.934Z,122.20
2022-12-01T21:40:44.317Z,123.90
2022-12-01T21:41:44.778Z,120.00
2022-12-01T21:42:44.587Z,129.80
2022-12-01T21:43:44.090Z,137.50
2022-12-01T21:44:43.956Z,127.30
2022-12-01T21:45:43.896Z,129.30
2022-12-01T21:46:43.897Z,126.50
2022-12-01T21:47:43.906Z,143.30
2022-12-01T21:48:43.975Z,123.00
2022-12-01T21:49:44.011Z,148.50
2022-12-01T21:50:44.763Z,132.70
2022-12-01T21:51:44.833Z,122.70
2022-12-01T21:52:43.738Z,133.90
2022-12-01T21:53:43.923Z,127.10
2022-12-01T21:54:43.733Z,124.60
2022-12-01T21:55:43.727Z,119.10
2022-12-01T21:56:43.856Z,109.60
2022-12-01T21:57:43.767Z,124.70
2022-12-01T21:58:43.945Z,109.60
2022-12-01T21:59:43.768Z,121.60